createdAt,value
2023-04-01T00:01:14.949Z,55.73
2023-04-01T00:03:42.449Z,55.62
2023-04-01T00:06:14.607Z,56.45
2023-04-01T00:08:41.749Z,56.45
2023-04-01T00:11:09.042Z,56.48
2023-04-01T00:13:36.844Z,56.61
2023-04-01T00:16:13.867Z,56.78
2023-04-01T00:18:48.837Z,56.83
2023-04-01T00:21:17.046Z,56.65
2023-04-01T00:23:44.928Z,56.40
2023-04-01T00:26:13.462Z,56.20
2023-04-01T00:28:41.497Z,56.72
2023-04-01T00:31:11.425Z,56.69
2023-04-01T00:33:41.753Z,56.16
2023-04-01T00:36:13.759Z,56.46
2023-04-01T00:38:42.706Z,56.54
2023-04-01T00:41:16.273Z,56.50
2023-04-01T00:43:47.715Z,57.23
2023-04-01T00:46:15.086Z,57.22
2023-04-01T00:48:56.475Z,57.32
2023-04-01T00:51:27.914Z,57.33
2023-04-01T00:53:58.995Z,57.72
2023-04-01T00:56:33.493Z,57.63
2023-04-01T00:59:09.268Z,57.75
2023-04-01T01:01:37.227Z,57.39
2023-04-01T01:04:04.497Z,57.42
2023-04-01T01:07:09.228Z,57.20
2023-04-01T01:10:01.376Z,57.28
2023-04-01T01:12:58.828Z,57.35
2023-04-01T01:15:48.913Z,57.08
2023-04-01T01:19:15.120Z,56.96
2023-04-01T01:22:19.524Z,56.64
2023-04-01T01:25:17.652Z,56.58
2023-04-01T01:27:57.757Z,56.37
2023-04-01T01:30:42.378Z,56.47
2023-04-01T01:33:32.622Z,57.00
2023-04-01T01:36:03.596Z,56.67
2023-04-01T01:38:35.420Z,56.84
2023-04-01T01:41:08.391Z,56.83
2023-04-01T01:43:41.871Z,56.73
2023-04-01T01:46:15.916Z,56.65
2023-04-01T01:48:44.940Z,56.39
2023-04-01T01:51:12.326Z,56.24
2023-04-01T01:53:39.833Z,56.06
2023-04-01T01:56:08.125Z,56.05
2023-04-01T01:58:45.621Z,56.42
2023-04-01T02:01:31.535Z,56.35
2023-04-01T02:04:06.934Z,56.45
2023-04-01T02:06:38.591Z,56.40
2023-04-01T02:09:09.667Z,56.47
2023-04-01T02:11:45.214Z,56.36
2023-04-01T02:14:21.112Z,56.27
2023-04-01T02:17:16.164Z,56.22
2023-04-01T02:20:10.347Z,56.32
2023-04-01T02:22:44.330Z,56.02
2023-04-01T02:25:24.081Z,55.97
2023-04-01T02:27:53.808Z,56.11
2023-04-01T02:30:21.334Z,55.88
2023-04-01T02:32:50.504Z,55.77
2023-04-01T02:35:18.507Z,56.02
2023-04-01T02:37:49.604Z,55.93
2023-04-01T02:40:18.137Z,55.78
2023-04-01T02:42:45.898Z,55.85
2023-04-01T02:45:14.293Z,56.10
2023-04-01T02:47:42.581Z,56.26
2023-04-01T02:50:10.984Z,56.74
2023-04-01T02:52:38.233Z,56.45
2023-04-01T02:55:07.794Z,56.19
2023-04-01T02:57:35.403Z,56.29
2023-04-01T03:00:02.866Z,56.11
2023-04-01T03:02:30.101Z,55.82
2023-04-01T03:04:57.408Z,56.02
2023-04-01T03:07:24.749Z,56.10
2023-04-01T03:09:51.914Z,55.85
2023-04-01T03:12:19.074Z,55.50
2023-04-01T03:14:51.210Z,55.82
2023-04-01T03:17:18.389Z,55.87
2023-04-01T03:19:45.762Z,55.89
2023-04-01T03:22:13.345Z,55.99
2023-04-01T03:24:40.468Z,55.99
2023-04-01T03:27:07.569Z,56.05
2023-04-01T03:29:34.753Z,55.99
2023-04-01T03:32:01.910Z,56.03
2023-04-01T03:34:29.211Z,55.80
2023-04-01T03:36:56.821Z,55.93
2023-04-01T03:39:24.024Z,56.20
2023-04-01T03:41:51.731Z,55.92
2023-04-01T03:44:18.908Z,55.75
2023-04-01T03:46:49.893Z,55.82
2023-04-01T03:49:19.137Z,55.66
2023-04-01T03:51:46.547Z,55.43
2023-04-01T03:54:14.146Z,55.49
2023-04-01T03:56:41.533Z,55.02
2023-04-01T03:59:09.395Z,54.50
2023-04-01T04:01:36.817Z,54.71
2023-04-01T04:04:04.081Z,54.48
2023-04-01T04:06:31.384Z,54.15
2023-04-01T04:08:58.528Z,54.52
2023-04-01T04:11:26.925Z,54.50
2023-04-01T04:13:56.023Z,54.06
2023-04-01T04:16:24.086Z,53.97
2023-04-01T04:18:57.686Z,53.89
2023-04-01T04:21:25.237Z,53.97
2023-04-01T04:23:52.603Z,53.79
2023-04-01T04:26:21.123Z,53.99
2023-04-01T04:28:57.453Z,53.79
2023-04-01T04:31:26.056Z,53.58
2023-04-01T04:33:55.875Z,53.53
2023-04-01T04:36:23.861Z,53.41
2023-04-01T04:38:53.797Z,53.47
2023-04-01T04:41:23.218Z,53.62
2023-04-01T04:43:55.072Z,53.53
2023-04-01T04:46:24.253Z,53.47
2023-04-01T04:48:57.679Z,53.52
2023-04-01T04:51:25.180Z,53.29
2023-04-01T04:53:53.261Z,53.48
2023-04-01T04:56:27.323Z,53.32
2023-04-01T04:59:05.379Z,53.49
2023-04-01T05:01:42.461Z,53.25
2023-04-01T05:04:09.691Z,53.18
2023-04-01T05:06:36.915Z,53.31
2023-04-01T05:09:04.670Z,53.25
2023-04-01T05:11:31.888Z,53.15
2023-04-01T05:13:59.097Z,53.80
2023-04-01T05:16:27.218Z,53.65
2023-04-01T05:18:54.410Z,53.73
2023-04-01T05:21:21.551Z,53.83
2023-04-01T05:23:48.937Z,53.94
2023-04-01T05:26:16.404Z,53.66
2023-04-01T05:28:43.810Z,53.92
2023-04-01T05:31:11.433Z,53.76
2023-04-01T05:33:40.869Z,53.57
2023-04-01T05:36:17.233Z,53.68
2023-04-01T05:38:47.171Z,53.32
2023-04-01T05:41:16.278Z,53.75
2023-04-01T05:43:46.419Z,53.05
2023-04-01T05:46:32.768Z,53.44
2023-04-01T05:49:09.194Z,52.94
2023-04-01T05:51:37.334Z,52.96
2023-04-01T05:54:06.708Z,52.92
2023-04-01T05:56:34.090Z,53.54
2023-04-01T05:59:02.181Z,53.71
2023-04-01T06:01:29.420Z,53.37
2023-04-01T06:03:56.854Z,53.59
2023-04-01T06:06:29.348Z,53.84
2023-04-01T06:09:21.004Z,52.67
2023-04-01T06:12:09.199Z,53.22
2023-04-01T06:15:48.883Z,52.40
2023-04-01T06:18:56.994Z,51.88
2023-04-01T06:21:46.301Z,51.81
2023-04-01T06:24:47.614Z,51.64
2023-04-01T06:28:06.333Z,50.89
2023-04-01T06:31:02.807Z,50.61
2023-04-01T06:33:58.663Z,50.15
2023-04-01T06:36:39.158Z,49.50
2023-04-01T06:39:28.673Z,50.08
2023-04-01T06:42:23.862Z,49.57
2023-04-01T06:45:32.811Z,49.41
2023-04-01T06:49:12.014Z,49.25
2023-04-01T06:52:20.631Z,48.47
2023-04-01T06:55:42.985Z,49.15
2023-04-01T06:58:37.403Z,48.76
2023-04-01T07:01:32.846Z,47.93
2023-04-01T07:04:27.540Z,48.26
2023-04-01T07:07:27.008Z,48.49
2023-04-01T07:10:02.471Z,48.26
2023-04-01T07:12:39.191Z,47.91
2023-04-01T07:15:33.149Z,47.38
2023-04-01T07:18:12.735Z,47.23
2023-04-01T07:20:40.498Z,47.95
2023-04-01T07:23:22.523Z,47.48
2023-04-01T07:26:18.763Z,46.89
2023-04-01T07:29:12.333Z,47.37
2023-04-01T07:32:23.980Z,47.21
2023-04-01T07:35:01.202Z,47.01
2023-04-01T07:38:20.613Z,47.11
2023-04-01T07:41:39.385Z,47.56
2023-04-01T07:44:23.356Z,46.88
2023-04-01T07:46:54.655Z,46.28
2023-04-01T07:49:24.621Z,45.82
2023-04-01T07:52:00.879Z,46.12
2023-04-01T07:54:58.637Z,46.72
2023-04-01T07:58:12.142Z,46.57
2023-04-01T08:01:05.660Z,46.92
2023-04-01T08:04:17.321Z,46.87
2023-04-01T08:07:12.075Z,46.95
2023-04-01T08:10:11.758Z,45.84
2023-04-01T08:13:44.958Z,45.26
2023-04-01T08:17:01.680Z,44.82
2023-04-01T08:19:54.179Z,45.37
2023-04-01T08:22:26.475Z,45.21
2023-04-01T08:24:58.346Z,44.70
2023-04-01T08:27:49.488Z,45.47
2023-04-01T08:30:35.776Z,45.63
2023-04-01T08:33:21.882Z,45.36
2023-04-01T08:36:20.280Z,45.08
2023-04-01T08:39:04.393Z,44.98
2023-04-01T08:42:19.879Z,44.95
2023-04-01T08:45:27.443Z,44.04
2023-04-01T08:48:09.998Z,43.99
2023-04-01T08:50:57.147Z,45.48
2023-04-01T08:53:28.956Z,45.71
2023-04-01T08:56:36.303Z,45.71
2023-04-01T08:59:32.533Z,45.10
2023-04-01T09:02:35.441Z,43.75
2023-04-01T09:05:48.268Z,43.97
2023-04-01T09:09:08.409Z,43.72
2023-04-01T09:12:02.740Z,43.62
2023-04-01T09:14:57.887Z,43.46
2023-04-01T09:18:14.652Z,42.79
2023-04-01T09:21:20.896Z,42.17
2023-04-01T09:24:00.293Z,43.40
2023-04-01T09:26:39.432Z,42.96
2023-04-01T09:29:25.925Z,42.53
2023-04-01T09:33:11.284Z,42.73
2023-04-01T09:36:19.861Z,41.88
2023-04-01T09:39:00.941Z,42.16
2023-04-01T09:41:40.982Z,42.42
2023-04-01T09:45:03.415Z,41.65
2023-04-01T09:47:55.794Z,41.58
2023-04-01T09:50:34.887Z,42.12
2023-04-01T09:53:23.943Z,42.81
2023-04-01T09:56:16.097Z,42.68
2023-04-01T09:59:15.003Z,42.27
2023-04-01T10:02:51.179Z,43.11
2023-04-01T10:06:29.379Z,42.54
2023-04-01T10:09:27.954Z,42.39
2023-04-01T10:12:26.219Z,42.60
2023-04-01T10:15:27.117Z,43.07
2023-04-01T10:18:32.154Z,43.30
2023-04-01T10:21:15.915Z,43.39
2023-04-01T10:24:23.177Z,42.92
2023-04-01T10:27:31.423Z,43.59
2023-04-01T10:30:55.471Z,43.30
2023-04-01T10:33:39.610Z,43.30
2023-04-01T10:36:25.254Z,43.47
2023-04-01T10:39:33.979Z,43.77
2023-04-01T10:43:12.065Z,43.80
2023-04-01T10:46:01.793Z,42.59
2023-04-01T10:49:21.395Z,42.62
2023-04-01T10:52:08.486Z,43.10
2023-04-01T10:55:22.156Z,42.91
2023-04-01T10:58:45.281Z,42.55
2023-04-01T11:02:04.011Z,41.74
2023-04-01T11:05:20.634Z,42.79
2023-04-01T11:08:37.543Z,41.91
2023-04-01T11:12:03.627Z,41.43
2023-04-01T11:15:18.298Z,42.04
2023-04-01T11:18:37.587Z,41.82
2023-04-01T11:21:29.104Z,40.64
2023-04-01T11:24:20.852Z,40.65
2023-04-01T11:27:21.764Z,40.55
2023-04-01T11:30:07.994Z,40.21
2023-04-01T11:33:17.019Z,42.56
2023-04-01T11:36:00.788Z,43.97
2023-04-01T11:38:46.138Z,45.29
2023-04-01T11:42:01.573Z,45.79
2023-04-01T11:45:29.968Z,43.62
2023-04-01T11:48:35.135Z,43.06
2023-04-01T11:51:30.959Z,40.53
2023-04-01T11:54:41.733Z,37.05
2023-04-01T11:57:39.671Z,36.99
2023-04-01T12:00:53.708Z,37.69
2023-04-01T12:03:36.006Z,38.37
2023-04-01T12:06:45.836Z,39.30
2023-04-01T12:09:31.834Z,39.70
2023-04-01T12:12:50.645Z,39.41
2023-04-01T12:15:34.179Z,39.52
2023-04-01T12:18:25.666Z,41.38
2023-04-01T12:21:16.626Z,41.65
2023-04-01T12:24:07.722Z,42.27
2023-04-01T12:27:17.227Z,42.73
2023-04-01T12:30:05.649Z,42.66
2023-04-01T12:32:51.250Z,41.14
2023-04-01T12:36:19.432Z,40.40
2023-04-01T12:39:04.683Z,40.33
2023-04-01T12:42:00.574Z,41.10
2023-04-01T12:45:24.581Z,38.75
2023-04-01T12:48:01.923Z,37.47
2023-04-01T12:51:10.483Z,36.88
2023-04-01T12:53:56.371Z,36.59
2023-04-01T12:56:38.864Z,37.45
2023-04-01T12:59:48.836Z,35.17
2023-04-01T13:02:53.201Z,35.65
2023-04-01T13:05:57.002Z,34.96
2023-04-01T13:09:07.901Z,31.91
2023-04-01T13:11:56.398Z,30.74
2023-04-01T13:14:57.490Z,29.79
2023-04-01T13:17:34.806Z,30.95
2023-04-01T13:20:10.993Z,29.90
2023-04-01T13:23:07.209Z,30.11
2023-04-01T13:26:13.650Z,34.33
2023-04-01T13:29:07.937Z,34.42
2023-04-01T13:32:13.239Z,34.59
2023-04-01T13:35:24.758Z,34.20
2023-04-01T13:38:50.629Z,33.36
2023-04-01T13:42:04.511Z,29.78
2023-04-01T13:44:44.765Z,28.64
2023-04-01T13:47:39.661Z,30.20
2023-04-01T13:50:34.958Z,32.53
2023-04-01T13:53:17.039Z,33.57
2023-04-01T13:55:59.072Z,32.61
2023-04-01T13:58:56.938Z,32.71
2023-04-01T14:02:03.816Z,32.99
2023-04-01T14:05:41.867Z,30.95
2023-04-01T14:08:49.620Z,25.90
2023-04-01T14:12:00.408Z,24.56
2023-04-01T14:15:00.292Z,28.07
2023-04-01T14:18:04.505Z,30.15
2023-04-01T14:20:39.959Z,30.12
2023-04-01T14:23:49.050Z,28.32
2023-04-01T14:26:42.708Z,29.40
2023-04-01T14:29:33.469Z,32.05
2023-04-01T14:32:18.673Z,33.84
2023-04-01T14:35:04.672Z,35.76
2023-04-01T14:38:03.981Z,35.14
2023-04-01T14:41:11.850Z,35.69
2023-04-01T14:43:56.817Z,34.27
2023-04-01T14:46:44.955Z,34.30
2023-04-01T14:49:21.739Z,34.22
2023-04-01T14:51:51.195Z,34.27
2023-04-01T14:54:33.357Z,34.60
2023-04-01T14:57:17.957Z,35.19
2023-04-01T14:59:56.249Z,35.82
2023-04-01T15:03:02.445Z,35.96
2023-04-01T15:05:41.612Z,36.61
2023-04-01T15:08:27.900Z,36.95
2023-04-01T15:11:41.681Z,37.81
2023-04-01T15:14:41.276Z,38.26
2023-04-01T15:17:30.001Z,38.16
2023-04-01T15:20:54.625Z,38.15
2023-04-01T15:23:50.544Z,37.91
2023-04-01T15:26:44.372Z,37.63
2023-04-01T15:29:44.926Z,38.27
2023-04-01T15:32:26.782Z,39.07
2023-04-01T15:35:19.810Z,39.41
2023-04-01T15:38:05.988Z,40.96
2023-04-01T15:41:04.971Z,40.59
2023-04-01T15:43:51.086Z,40.07
2023-04-01T15:46:50.164Z,39.36
2023-04-01T15:49:40.168Z,39.88
2023-04-01T15:52:36.974Z,39.90
2023-04-01T15:55:32.851Z,39.95
2023-04-01T15:58:27.450Z,40.22
2023-04-01T16:01:38.060Z,40.28
2023-04-01T16:04:27.331Z,41.00
2023-04-01T16:07:23.776Z,41.02
2023-04-01T16:10:23.355Z,41.36
2023-04-01T16:13:33.658Z,41.08
2023-04-01T16:16:31.825Z,41.17
2023-04-01T16:19:50.147Z,41.04
2023-04-01T16:22:51.519Z,41.60
2023-04-01T16:25:48.442Z,41.17
2023-04-01T16:28:40.909Z,41.04
2023-04-01T16:31:46.644Z,42.25
2023-04-01T16:34:55.794Z,42.92
2023-04-01T16:37:40.675Z,42.86
2023-04-01T16:40:54.476Z,43.18
2023-04-01T16:43:43.344Z,43.01
2023-04-01T16:46:16.987Z,43.90
2023-04-01T16:49:12.186Z,44.26
2023-04-01T16:52:17.299Z,44.35
2023-04-01T16:55:19.960Z,44.53
2023-04-01T16:57:59.537Z,44.96
2023-04-01T17:00:51.269Z,44.85
2023-04-01T17:04:06.034Z,45.39
2023-04-01T17:06:45.386Z,45.33
2023-04-01T17:09:24.576Z,46.17
2023-04-01T17:12:22.988Z,46.52
2023-04-01T17:15:24.583Z,46.55
2023-04-01T17:18:40.115Z,47.90
2023-04-01T17:21:26.686Z,48.31
2023-04-01T17:24:13.549Z,48.84
2023-04-01T17:26:48.613Z,48.65
2023-04-01T17:29:42.230Z,48.89
2023-04-01T17:33:03.702Z,48.44
2023-04-01T17:35:53.504Z,48.62
2023-04-01T17:38:39.332Z,48.96
2023-04-01T17:41:12.414Z,49.22
2023-04-01T17:44:18.056Z,49.85
2023-04-01T17:47:47.565Z,50.57
2023-04-01T17:50:59.630Z,51.04
2023-04-01T17:54:03.432Z,51.21
2023-04-01T17:56:53.506Z,51.75
2023-04-01T17:59:50.577Z,52.05
2023-04-01T18:02:28.323Z,52.12
2023-04-01T18:05:26.237Z,52.09
2023-04-01T18:08:33.525Z,52.24
2023-04-01T18:11:36.829Z,52.54
2023-04-01T18:14:51.498Z,52.80
2023-04-01T18:17:40.265Z,53.07
2023-04-01T18:20:55.566Z,53.30
2023-04-01T18:23:36.537Z,53.25
2023-04-01T18:26:28.806Z,53.78
2023-04-01T18:29:18.958Z,53.75
2023-04-01T18:31:53.260Z,53.80
2023-04-01T18:34:48.880Z,53.84
2023-04-01T18:37:30.006Z,54.10
2023-04-01T18:40:26.467Z,54.26
2023-04-01T18:43:18.104Z,54.48
2023-04-01T18:46:03.405Z,54.79
2023-04-01T18:49:19.197Z,54.76
2023-04-01T18:51:56.936Z,55.03
2023-04-01T18:54:58.694Z,54.90
2023-04-01T18:57:27.222Z,54.73
2023-04-01T19:00:06.651Z,54.64
2023-04-01T19:02:40.614Z,54.64
2023-04-01T19:05:21.458Z,54.56
2023-04-01T19:07:56.043Z,54.69
2023-04-01T19:10:27.531Z,54.41
2023-04-01T19:13:12.714Z,54.32
2023-04-01T19:16:13.059Z,54.42
2023-04-01T19:19:31.582Z,54.63
2023-04-01T19:22:47.482Z,54.97
2023-04-01T19:25:40.131Z,55.50
2023-04-01T19:28:31.792Z,55.42
2023-04-01T19:31:14.445Z,55.13
2023-04-01T19:34:08.430Z,54.92
2023-04-01T19:36:57.327Z,54.97
2023-04-01T19:39:43.322Z,54.98
2023-04-01T19:42:22.586Z,54.62
2023-04-01T19:45:25.163Z,53.18
2023-04-01T19:47:59.871Z,52.74
2023-04-01T19:50:47.680Z,52.81
2023-04-01T19:53:34.266Z,52.95
2023-04-01T19:56:27.283Z,52.89
2023-04-01T19:59:35.917Z,53.09
2023-04-01T20:02:21.517Z,52.66
2023-04-01T20:04:57.411Z,52.54
2023-04-01T20:07:45.491Z,52.50
2023-04-01T20:10:23.975Z,53.28
2023-04-01T20:13:34.578Z,52.90
2023-04-01T20:16:08.458Z,53.12
2023-04-01T20:18:59.939Z,53.26
2023-04-01T20:21:37.919Z,53.37
2023-04-01T20:24:42.692Z,53.22
2023-04-01T20:27:15.227Z,53.22
2023-04-01T20:30:09.685Z,53.60
2023-04-01T20:33:02.365Z,53.61
2023-04-01T20:35:58.684Z,53.86
2023-04-01T20:38:54.349Z,54.00
2023-04-01T20:41:24.553Z,53.91
2023-04-01T20:44:06.372Z,54.00
2023-04-01T20:47:18.585Z,54.39
2023-04-01T20:50:01.528Z,54.29
2023-04-01T20:52:45.619Z,54.10
2023-04-01T20:55:41.477Z,54.03
2023-04-01T20:58:20.925Z,53.45
2023-04-01T21:01:06.183Z,53.47
2023-04-01T21:03:49.743Z,53.32
2023-04-01T21:06:29.259Z,53.31
2023-04-01T21:09:17.952Z,53.66
2023-04-01T21:12:01.943Z,54.10
2023-04-01T21:15:15.825Z,54.39
2023-04-01T21:18:25.028Z,54.74
2023-04-01T21:21:10.494Z,55.48
2023-04-01T21:23:59.391Z,56.09
2023-04-01T21:26:35.703Z,56.74
2023-04-01T21:29:27.368Z,57.32
2023-04-01T21:32:12.612Z,57.85
2023-04-01T21:35:01.975Z,57.95
2023-04-01T21:37:55.377Z,57.99
2023-04-01T21:40:51.090Z,58.36
2023-04-01T21:43:59.687Z,58.55
2023-04-01T21:47:07.907Z,58.34
2023-04-01T21:50:13.285Z,58.54
2023-04-01T21:52:55.077Z,58.68
2023-04-01T21:55:52.631Z,58.86
2023-04-01T21:58:53.645Z,59.06
2023-04-01T22:01:45.852Z,59.51
2023-04-01T22:04:37.295Z,59.34
2023-04-01T22:07:35.401Z,59.29
2023-04-01T22:10:52.330Z,59.60
2023-04-01T22:13:50.493Z,59.33
2023-04-01T22:16:57.353Z,59.60
2023-04-01T22:20:10.407Z,59.90
2023-04-01T22:23:29.470Z,59.72
2023-04-01T22:26:29.262Z,60.40
2023-04-01T22:29:08.945Z,60.65
2023-04-01T22:32:10.941Z,60.67
2023-04-01T22:34:50.640Z,60.19
2023-04-01T22:37:51.712Z,60.55
2023-04-01T22:40:29.829Z,60.22
2023-04-01T22:43:18.333Z,59.87
2023-04-01T22:45:54.448Z,59.60
2023-04-01T22:48:43.869Z,59.60
2023-04-01T22:51:42.784Z,60.31
2023-04-01T22:54:23.194Z,60.69
2023-04-01T22:57:06.103Z,60.49
2023-04-01T22:59:39.139Z,60.69
2023-04-01T23:02:31.642Z,60.79
2023-04-01T23:05:03.968Z,60.65
2023-04-01T23:07:56.164Z,60.85
2023-04-01T23:10:42.107Z,61.26
2023-04-01T23:13:20.707Z,62.02
2023-04-01T23:15:48.637Z,61.83
2023-04-01T23:18:38.115Z,61.39
2023-04-01T23:21:30.011Z,61.32
2023-04-01T23:24:14.633Z,61.30
2023-04-01T23:27:22.637Z,61.17
2023-04-01T23:29:49.808Z,60.76
2023-04-01T23:32:25.814Z,60.81
2023-04-01T23:35:01.320Z,61.14
2023-04-01T23:37:28.861Z,61.00
2023-04-01T23:39:58.896Z,61.27
2023-04-01T23:42:40.582Z,60.70
2023-04-01T23:45:18.399Z,60.09
2023-04-01T23:47:48.016Z,59.87
2023-04-01T23:50:29.291Z,59.55
2023-04-01T23:53:35.566Z,59.47
2023-04-01T23:56:04.066Z,59.05
2023-04-01T23:59:00.693Z,58.79
